Time;durP1;ratioP1;P1;durP2;ratioP2;P2;SDS_P1;SDS_P2;PMS_P1;PMS_P2;Temp;Humidity;BMP_temperature;BMP_pressure;BME280_temperature;BME280_humidity;BME280_pressure;Samples;Min_cycle;Max_cycle;Signal;HPM_P1;HPM_P2
2021/10/25 00:01:00;;;;;;;47.95;20.95;;;;;;;1.08;82.38;100232.56;2210353;81;20988;-67
2021/10/25 00:04:02;;;;;;;49.42;20.92;;;;;;;1.09;82.62;100229.12;2210214;81;21555;-67
2021/10/25 00:07:02;;;;;;;47.35;21.48;;;;;;;1.09;82.45;100230.41;2210410;81;20980;-67
2021/10/25 00:10:03;;;;;;;48.65;21.27;;;;;;;1.07;82.41;100226.98;2210285;81;21032;-67
2021/10/25 00:13:03;;;;;;;49.95;23.20;;;;;;;1.04;82.43;100228.69;2210088;81;21491;-67
2021/10/25 00:16:03;;;;;;;50.78;22.37;;;;;;;1.04;82.51;100226.55;2210178;81;21476;-67
2021/10/25 00:19:04;;;;;;;51.92;21.90;;;;;;;1.00;82.42;100222.23;2210174;81;20980;-67
2021/10/25 00:22:04;;;;;;;46.68;21.48;;;;;;;0.98;82.32;100223.52;2210182;81;21007;-67
2021/10/25 00:25:05;;;;;;;51.53;22.22;;;;;;;0.91;82.25;100220.51;2210556;81;20965;-67
2021/10/25 00:28:05;;;;;;;50.05;21.93;;;;;;;0.88;82.58;100217.92;2210301;81;21004;-67
2021/10/25 00:31:06;;;;;;;50.00;22.37;;;;;;;0.86;82.46;100219.63;2210295;81;21085;-67
2021/10/25 00:34:06;;;;;;;53.73;24.12;;;;;;;0.91;82.74;100220.51;2210169;81;20972;-67
2021/10/25 00:37:07;;;;;;;52.60;23.47;;;;;;;0.92;82.43;100219.66;2210242;81;21496;-67
2021/10/25 00:40:07;;;;;;;52.75;23.80;;;;;;;0.88;82.57;100211.88;2210111;81;21043;-67
2021/10/25 00:43:08;;;;;;;48.35;22.62;;;;;;;0.85;82.58;100212.32;2209793;81;21028;-67
2021/10/25 00:46:10;;;;;;;52.08;22.82;;;;;;;0.80;82.55;100215.75;2210527;81;20949;-67
2021/10/25 00:49:10;;;;;;;49.40;22.25;;;;;;;0.74;82.56;100211.44;2210453;81;21020;-67
2021/10/25 00:52:11;;;;;;;51.63;22.02;;;;;;;0.71;82.75;100205.43;2210189;81;20969;-67
2021/10/25 00:55:12;;;;;;;52.67;23.12;;;;;;;0.68;82.77;100203.25;2210191;81;21011;-67
2021/10/25 00:58:13;;;;;;;50.88;22.60;;;;;;;0.68;82.88;100198.09;2210081;81;21015;-67
2021/10/25 01:01:15;;;;;;;50.30;22.15;;;;;;;0.67;82.93;100195.51;2210168;81;21040;-67
2021/10/25 01:04:16;;;;;;;53.45;22.50;;;;;;;0.64;83.04;100187.32;2210293;81;21036;-67
2021/10/25 01:07:16;;;;;;;50.75;22.75;;;;;;;0.62;82.89;100185.18;2210046;81;21095;-67
2021/10/25 01:10:17;;;;;;;49.77;22.02;;;;;;;0.59;83.09;100182.59;2210289;81;21455;-67
2021/10/25 01:13:17;;;;;;;49.53;21.95;;;;;;;0.59;83.07;100179.13;2210171;81;21000;-67
2021/10/25 01:16:18;;;;;;;50.78;22.27;;;;;;;0.61;83.08;100178.28;2210142;81;20969;-67
2021/10/25 01:19:19;;;;;;;49.58;22.55;;;;;;;0.60;82.96;100183.01;2210295;81;20991;-67
2021/10/25 01:22:19;;;;;;;52.85;22.70;;;;;;;0.59;82.92;100175.26;2210481;81;20941;-67
2021/10/25 01:25:21;;;;;;;49.20;22.30;;;;;;;0.55;82.84;100169.25;2210419;81;21103;-67
2021/10/25 01:28:22;;;;;;;52.55;21.80;;;;;;;0.53;82.88;100166.22;2210276;81;21522;-67
2021/10/25 01:31:23;;;;;;;50.28;20.23;;;;;;;0.48;82.89;100168.36;2210577;81;21032;-67
2021/10/25 01:34:24;;;;;;;45.80;20.68;;;;;;;0.43;82.84;100160.17;2210399;81;20996;-67
2021/10/25 01:37:26;;;;;;;44.95;19.80;;;;;;;0.41;82.81;100158.03;2210545;81;21527;-67
2021/10/25 01:40:28;;;;;;;48.00;19.82;;;;;;;0.37;83.01;100158.45;2210612;81;21008;-67
2021/10/25 01:43:30;;;;;;;50.83;23.42;;;;;;;0.37;83.21;100152.44;2210411;81;21025;-67
2021/10/25 01:46:32;;;;;;;48.95;20.45;;;;;;;0.34;83.24;100146.83;2210434;81;21024;-67
2021/10/25 01:49:33;;;;;;;47.20;18.90;;;;;;;0.38;83.19;100151.14;2210455;81;21003;-67
2021/10/25 01:52:35;;;;;;;47.98;19.82;;;;;;;0.40;83.20;100150.70;2210350;81;20985;-67
2021/10/25 01:55:36;;;;;;;44.75;18.67;;;;;;;0.41;83.18;100149.00;2210301;81;21447;-67
2021/10/25 01:58:38;;;;;;;47.23;19.15;;;;;;;0.51;83.27;100152.02;2210193;81;21072;-67
2021/10/25 02:01:40;;;;;;;44.37;19.00;;;;;;;0.67;83.37;100139.98;2210588;81;21044;-67
2021/10/25 02:04:42;;;;;;;43.20;18.62;;;;;;;0.73;83.07;100139.13;2210453;81;20988;-67
2021/10/25 02:07:44;;;;;;;45.67;19.65;;;;;;;0.80;82.92;100140.41;2210541;81;21012;-67
2021/10/25 02:10:46;;;;;;;;;;;;;;;0.82;82.72;100128.37;2212989;81;21507;-67
2021/10/25 02:13:48;;;;;;;41.18;18.12;;;;;;;0.78;82.25;100128.37;2210358;80;20135;-67
2021/10/25 02:16:49;;;;;;;44.55;18.70;;;;;;;0.77;82.58;100136.98;2210269;81;21471;-67
2021/10/25 02:19:50;;;;;;;44.33;18.62;;;;;;;0.73;82.65;100139.13;2210311;81;20993;-67
2021/10/25 02:22:52;;;;;;;41.63;17.92;;;;;;;0.75;82.50;100136.98;2210300;81;21525;-67
2021/10/25 02:25:53;;;;;;;41.15;18.70;;;;;;;0.66;81.79;100133.97;2210390;81;21011;-67
2021/10/25 02:28:55;;;;;;;45.65;18.27;;;;;;;0.57;81.90;100131.80;2210218;81;21036;-67
2021/10/25 02:31:57;;;;;;;42.13;18.30;;;;;;;0.50;82.25;100129.64;2210546;81;20968;-67
2021/10/25 02:34:59;;;;;;;38.65;17.30;;;;;;;0.43;82.54;100127.50;2210304;81;20993;-67
2021/10/25 02:38:00;;;;;;;40.58;17.32;;;;;;;0.43;82.42;100124.03;2210513;81;21019;-67
2021/10/25 02:41:02;;;;;;;44.98;18.70;;;;;;;0.42;82.57;100128.80;2210223;81;20965;-67
2021/10/25 02:44:04;;;;;;;44.30;18.40;;;;;;;0.47;82.53;100122.74;2210111;81;21032;-67
2021/10/25 02:47:05;;;;;;;39.05;18.67;;;;;;;0.40;82.18;100122.30;2210249;81;21085;-67
2021/10/25 02:50:07;;;;;;;40.37;18.00;;;;;;;0.31;82.05;100122.31;2210646;81;20981;-67
2021/10/25 02:53:09;;;;;;;44.30;17.65;;;;;;;0.24;82.21;100122.72;2210289;81;21024;-67
2021/10/25 02:56:11;;;;;;;43.92;16.80;;;;;;;0.19;82.34;100114.13;2210275;81;21037;-67
2021/10/25 02:59:14;;;;;;;44.13;17.52;;;;;;;0.19;82.72;100110.25;2210410;81;21503;-67
2021/10/25 03:02:16;;;;;;;38.40;16.17;;;;;;;0.23;82.67;100112.39;2210271;81;21033;-67
2021/10/25 03:05:17;;;;;;;41.35;17.62;;;;;;;0.24;82.55;100104.65;2210648;81;20985;-67
2021/10/25 03:08:19;;;;;;;43.05;17.60;;;;;;;0.23;82.55;100106.83;2210229;81;20976;-67
2021/10/25 03:11:20;;;;;;;42.70;17.42;;;;;;;0.28;82.91;100107.67;2210256;81;21068;-67
2021/10/25 03:14:22;;;;;;;38.45;16.42;;;;;;;0.28;82.48;100110.25;2210266;81;21023;-67
2021/10/25 03:17:24;;;;;;;43.63;17.90;;;;;;;0.33;82.59;100110.25;2210170;81;21506;-67
2021/10/25 03:20:26;;;;;;;;;;;;;;;0.45;82.72;100105.11;2212895;81;21044;-67
2021/10/25 03:23:27;;;;;;;43.73;16.80;;;;;;;0.48;82.11;100109.42;2210357;81;20093;-67
2021/10/25 03:26:29;;;;;;;38.28;16.70;;;;;;;0.43;82.06;100111.13;2210088;81;21072;-67
2021/10/25 03:29:31;;;;;;;41.18;18.10;;;;;;;0.37;82.04;100105.97;2210606;81;21016;-67
2021/10/25 03:32:33;;;;;;;40.88;17.45;;;;;;;0.31;81.98;100103.80;2210369;81;21483;-67
2021/10/25 03:35:35;;;;;;;42.08;17.60;;;;;;;0.28;82.04;100104.23;2210437;81;21031;-67
2021/10/25 03:38:38;;;;;;;44.73;18.05;;;;;;;0.24;82.10;100105.09;2210309;81;21460;-67
2021/10/25 03:41:44;;;;;;;41.42;17.35;;;;;;;0.22;82.34;100101.66;2190717;80;21845;-67
2021/10/25 03:44:48;;;;;;;45.10;17.00;;;;;;;0.14;82.17;100099.05;2189943;80;21012;-67
2021/10/25 03:50:49;;;;;;;41.27;17.97;;;;;;;0.21;82.38;100098.20;2220980;80;21044;-67
2021/10/25 04:27:31;;;;;;;40.30;17.73;;;;;;;0.26;82.59;100056.91;2190571;80;21539;-67
2021/10/25 04:30:32;;;;;;;42.15;17.85;;;;;;;0.25;82.37;100059.08;2190194;80;21495;-67
2021/10/25 04:33:34;;;;;;;42.80;18.35;;;;;;;0.19;82.34;100054.77;2220409;80;21573;-67
2021/10/25 04:36:35;;;;;;;41.68;17.52;;;;;;;0.14;82.36;100055.18;2220638;80;21040;-67
2021/10/25 04:39:37;;;;;;;43.35;17.57;;;;;;;0.09;82.25;100047.88;2220381;80;21064;-67
2021/10/25 04:42:38;;;;;;;40.15;16.37;;;;;;;0.05;82.50;100046.16;2220172;80;21127;-67
2021/10/25 04:45:40;;;;;;;41.10;17.70;;;;;;;0.11;82.47;100044.86;2220421;80;21052;-67
2021/10/25 04:48:42;;;;;;;45.10;17.90;;;;;;;0.07;82.46;100039.27;2220710;80;21068;-67
2021/10/25 04:51:44;;;;;;;40.80;17.90;;;;;;;0.06;82.79;100040.99;2220579;80;21363;-67
2021/10/25 04:54:46;;;;;;;46.88;19.45;;;;;;;0.00;82.76;100041.00;2220855;80;21039;-67
2021/10/25 04:57:47;;;;;;;45.05;18.98;;;;;;;-0.04;82.91;100033.66;2220614;80;21039;-67
2021/10/25 05:00:48;;;;;;;43.25;18.40;;;;;;;-0.05;82.85;100033.66;2220661;80;20995;-67
2021/10/25 05:03:50;;;;;;;45.33;19.12;;;;;;;-0.09;83.00;100031.94;2220665;80;20984;-67
2021/10/25 05:06:52;;;;;;;41.92;17.30;;;;;;;-0.08;83.16;100026.77;2220884;80;21033;-67
2021/10/25 05:09:55;;;;;;;40.90;18.25;;;;;;;-0.08;83.07;100021.62;2220683;80;21036;-67
2021/10/25 05:12:56;;;;;;;43.48;19.35;;;;;;;-0.08;83.02;100017.75;2220787;80;21048;-67
2021/10/25 05:15:58;;;;;;;41.80;18.12;;;;;;;-0.04;83.00;100016.05;2220459;80;21083;-67
2021/10/25 05:18:59;;;;;;;44.20;18.90;;;;;;;-0.04;83.06;100007.87;2220775;80;20984;-67
2021/10/25 05:22:00;;;;;;;43.20;19.50;;;;;;;0.00;83.20;100013.91;2220681;80;21352;-67
2021/10/25 05:25:02;;;;;;;49.13;21.10;;;;;;;-0.04;82.83;100010.45;2220758;80;20944;-67
2021/10/25 05:28:03;;;;;;;45.43;18.98;;;;;;;-0.02;83.17;100012.59;2220607;80;20976;-67
2021/10/25 05:31:06;;;;;;;46.25;19.55;;;;;;;0.04;83.10;100008.30;2220660;80;21518;-67
2021/10/25 05:34:09;;;;;;;;;;;;;;;0.08;83.11;100009.59;2223295;80;21055;-67
2021/10/25 05:37:10;;;;;;;;;;;;;;;0.13;82.99;100019.50;2223369;80;20096;-67
2021/10/25 05:40:12;;;;;;;46.65;21.87;;;;;;;0.20;82.93;100033.24;2220770;80;20100;-67
2021/10/25 05:43:14;;;;;;;49.15;23.15;;;;;;;0.24;82.53;100029.81;2220781;80;21012;-67
2021/10/25 05:46:15;;;;;;;45.73;20.60;;;;;;;0.20;82.26;100024.66;2221065;80;21016;-67
2021/10/25 05:49:17;;;;;;;44.65;19.82;;;;;;;0.13;82.34;100013.05;2221005;80;21028;-67
2021/10/25 05:52:18;;;;;;;45.80;21.40;;;;;;;0.13;82.68;100016.92;2220964;80;21104;-67
2021/10/25 05:55:23;;;;;;;45.80;20.30;;;;;;;0.28;82.74;100012.62;2220908;80;21024;-67
2021/10/25 05:58:23;;;;;;;47.45;22.37;;;;;;;0.41;82.48;100009.61;2192861;80;21044;-67
2021/10/25 06:04:28;;;;;;;45.65;21.50;;;;;;;0.55;82.46;100016.91;2193165;80;20992;-67
2021/10/25 06:07:30;;;;;;;48.43;22.10;;;;;;;0.67;82.28;100010.41;2221397;80;20958;-67
2021/10/25 06:10:32;;;;;;;49.88;21.50;;;;;;;0.78;81.97;100001.81;2221091;80;21067;-67
2021/10/25 06:16:39;;;;;;;43.68;18.42;;;;;;;1.04;82.08;100018.53;2192898;80;21531;-67
2021/10/25 06:19:41;;;;;;;45.73;20.23;;;;;;;1.26;81.77;100024.91;2192866;80;21000;-66
2021/10/25 06:22:42;;;;;;;41.73;19.87;;;;;;;1.38;81.23;100028.75;2221377;80;21016;-66
2021/10/25 06:25:45;;;;;;;45.08;20.08;;;;;;;1.37;80.89;100027.03;2221031;80;20988;-66
2021/10/25 06:28:48;;;;;;;45.43;20.12;;;;;;;1.43;81.06;100028.73;2221035;80;21051;-66
2021/10/25 06:31:50;;;;;;;40.90;19.45;;;;;;;1.66;81.56;100027.31;2221169;80;21019;-66
2021/10/25 06:34:52;;;;;;;42.33;19.00;;;;;;;1.93;81.12;100035.35;2221049;80;20972;-66
2021/10/25 06:40:56;;;;;;;;;;;;;;;2.24;80.51;100028.65;2223507;80;21107;-66
2021/10/25 06:43:59;;;;;;;42.38;19.25;;;;;;;2.38;80.19;100025.52;2220596;80;20163;-66
2021/10/25 06:47:00;;;;;;;41.20;19.12;;;;;;;2.50;80.19;100027.58;2220872;80;21551;-66
2021/10/25 06:50:02;;;;;;;43.98;20.00;;;;;;;2.53;79.71;100021.95;2220927;80;21060;-66
2021/10/25 06:53:04;;;;;;;44.90;20.62;;;;;;;2.52;79.97;100026.70;2220904;80;21075;-66
2021/10/25 06:56:05;;;;;;;54.00;20.40;;;;;;;2.71;80.30;100026.08;2221132;80;21040;-66
2021/10/25 06:59:07;;;;;;;51.55;22.17;;;;;;;2.98;79.93;100020.66;2220639;80;21587;-66
2021/10/25 07:02:09;;;;;;;44.03;21.00;;;;;;;3.15;79.53;100020.44;2220912;80;21080;-66
2021/10/25 07:05:11;;;;;;;54.63;26.65;;;;;;;3.26;79.67;100022.05;2220865;80;21531;-66
2021/10/25 07:08:15;;;;;;;58.58;25.62;;;;;;;3.44;79.50;100021.41;2220840;80;21100;-66
2021/10/25 07:11:17;;;;;;;;;;;;;;;3.58;79.05;100021.23;2223553;80;21056;-66
2021/10/25 07:14:25;;;;;;;63.83;28.92;;;;;;;3.80;78.70;100022.63;2221031;80;20099;-66
2021/10/25 08:00:26;;;;;;;45.58;20.72;;;;;;;5.75;76.32;99978.80;2193162;80;20968;-66
2021/10/25 08:12:22;;;;;;;50.50;21.77;;;;;;;6.45;74.59;99958.91;2223366;80;20983;-66
2021/10/25 08:15:27;;;;;;;43.63;18.95;;;;;;;6.51;72.89;99960.06;2193142;80;20988;-66
2021/10/25 08:21:28;;;;;;;42.67;17.85;;;;;;;6.68;73.44;99961.77;2193057;80;20992;-66
2021/10/25 08:24:30;;;;;;;39.27;18.32;;;;;;;6.87;73.08;99966.49;2223027;80;21075;-66
2021/10/25 08:27:32;;;;;;;43.68;19.20;;;;;;;7.04;72.60;99960.78;2223193;80;21020;-66
2021/10/25 08:30:33;;;;;;;42.38;19.07;;;;;;;7.15;72.43;99960.48;2222907;80;21562;-66
2021/10/25 08:42:46;;;;;;;44.23;20.37;;;;;;;7.58;70.88;99952.22;2192795;80;21060;-66
2021/10/25 08:45:50;;;;;;;38.40;19.45;;;;;;;7.77;71.82;99956.88;2221008;80;20965;-65
2021/10/25 08:48:51;;;;;;;40.20;19.98;;;;;;;7.94;71.31;99955.04;2192931;80;21039;-66
2021/10/25 08:51:53;;;;;;;39.38;18.75;;;;;;;8.06;71.12;99948.13;2220907;80;21595;-66
2021/10/25 08:54:54;;;;;;;42.13;19.67;;;;;;;8.20;70.14;99949.41;2220677;80;21035;-66
2021/10/25 08:57:56;;;;;;;45.92;21.82;;;;;;;8.33;70.58;99947.66;2220783;80;21015;-66
2021/10/25 09:00:57;;;;;;;39.23;18.40;;;;;;;8.51;70.61;99945.34;2221074;80;21009;-66
2021/10/25 09:03:59;;;;;;;40.63;19.42;;;;;;;8.70;70.35;99952.55;2220816;80;21028;-66
2021/10/25 09:07:01;;;;;;;45.50;19.95;;;;;;;8.94;70.08;99949.52;2220915;80;21068;-66
2021/10/25 09:10:02;;;;;;;39.13;17.85;;;;;;;9.12;69.37;99943.61;2220802;80;21537;-66
2021/10/25 09:13:04;;;;;;;43.35;18.80;;;;;;;9.28;69.70;99943.01;2220889;80;21036;-66
2021/10/25 09:16:06;;;;;;;39.70;18.52;;;;;;;9.49;69.44;99939.57;2220740;80;21071;-66
2021/10/25 09:19:07;;;;;;;37.13;16.90;;;;;;;9.74;69.38;99932.52;2221029;80;21084;-66
2021/10/25 09:22:09;;;;;;;38.70;17.00;;;;;;;9.96;68.89;99925.50;2220791;80;21099;-66
2021/10/25 09:25:13;;;;;;;32.78;13.72;;;;;;;10.09;67.68;99926.32;2220412;80;21147;-65
2021/10/25 09:28:15;;;;;;;34.58;14.90;;;;;;;10.19;67.12;99917.98;2220899;80;21007;-66
2021/10/25 09:31:22;;;;;;;34.43;15.72;;;;;;;10.40;67.26;99912.34;2220921;80;21067;-66
2021/10/25 09:34:22;;;;;;;34.55;14.53;;;;;;;10.58;66.74;99911.98;2192901;80;21491;-65
2021/10/25 09:37:28;;;;;;;33.25;14.50;;;;;;;10.64;65.98;99916.11;2192642;80;21582;-66
2021/10/25 09:40:33;;;;;;;32.78;12.20;;;;;;;10.80;66.38;99904.47;2192834;80;20988;-65
2021/10/25 09:49:37;;;;;;;29.40;12.33;;;;;;;11.24;63.71;99896.81;2190383;80;21005;-67
2021/10/25 09:52:39;;;;;;;;;;;;;;;11.42;64.33;99888.52;2223272;80;21083;-65
2021/10/25 09:55:41;;;;;;;29.05;12.03;;;;;;;11.54;63.94;99885.31;2220571;80;20115;-66
2021/10/25 09:58:48;;;;;;;28.98;11.83;;;;;;;11.71;63.88;99881.88;2220801;80;21054;-66
2021/10/25 10:01:46;;;;;;;28.25;11.50;;;;;;;11.80;61.95;99879.25;2190468;80;21013;-66
2021/10/25 10:04:48;;;;;;;30.15;11.10;;;;;;;11.92;63.92;99871.21;2220694;80;21570;-66
2021/10/25 10:07:50;;;;;;;;;;;;;;;12.13;62.70;99870.63;2223407;80;21075;-65
2021/10/25 10:10:51;;;;;;;29.02;11.40;;;;;;;12.21;60.65;99862.34;2220852;80;20131;-66
2021/10/25 10:13:52;;;;;;;30.95;12.65;;;;;;;12.05;60.49;99858.33;2220715;80;21044;-66
2021/10/25 10:16:54;;;;;;;29.65;11.45;;;;;;;11.91;59.69;99846.71;2220914;80;21518;-66
2021/10/25 10:19:55;;;;;;;29.30;10.70;;;;;;;12.00;61.39;99845.91;2221001;80;21027;-65
2021/10/25 10:22:57;;;;;;;29.40;11.60;;;;;;;12.20;59.09;99844.41;2220990;80;21060;-67
2021/10/25 10:26:00;;;;;;;28.15;11.38;;;;;;;12.36;60.84;99849.72;2220813;80;21051;-66
2021/10/25 10:29:01;;;;;;;26.93;11.15;;;;;;;12.48;60.65;99849.54;2220714;80;21582;-66
2021/10/25 10:32:02;;;;;;;31.55;11.30;;;;;;;12.69;60.78;99842.30;2221057;80;21036;-67
2021/10/25 10:35:04;;;;;;;29.07;11.80;;;;;;;12.94;59.20;99845.78;2220798;80;21028;-67
2021/10/25 10:38:05;;;;;;;32.77;11.63;;;;;;;12.90;57.50;99841.61;2220807;80;21079;-66
2021/10/25 10:41:07;;;;;;;29.50;11.30;;;;;;;12.94;59.29;99840.95;2220943;80;21028;-65
2021/10/25 10:44:08;;;;;;;28.30;11.57;;;;;;;13.17;58.55;99831.34;2220871;80;21077;-66
2021/10/25 10:47:13;;;;;;;30.00;12.23;;;;;;;13.28;55.56;99841.27;2220733;80;21753;-66
2021/10/25 10:50:13;;;;;;;30.43;12.23;;;;;;;13.26;56.54;99829.97;2192924;80;21036;-66
2021/10/25 10:53:24;;;;;;;29.17;12.50;;;;;;;13.27;57.51;99825.06;2221282;80;20980;-66
2021/10/25 10:56:23;;;;;;;33.48;12.30;;;;;;;13.31;57.12;99816.53;2192785;80;21048;-66
2021/10/25 11:02:24;;;;;;;28.50;11.48;;;;;;;13.42;55.85;99810.66;2192871;80;20985;-67
2021/10/25 11:05:26;;;;;;;26.37;10.65;;;;;;;13.53;56.84;99810.06;2221204;80;20981;-67
2021/10/25 11:08:28;;;;;;;26.45;9.85;;;;;;;13.55;56.33;99810.81;2221123;80;21519;-67
2021/10/25 11:11:29;;;;;;;25.43;9.48;;;;;;;13.53;54.51;99810.06;2221242;80;21020;-66
2021/10/25 11:14:31;;;;;;;24.57;8.13;;;;;;;13.69;56.68;99812.18;2221112;80;21621;-66
2021/10/25 11:17:32;;;;;;;26.93;8.98;;;;;;;13.82;54.14;99801.77;2221163;80;21031;-67
2021/10/25 11:20:34;;;;;;;24.67;8.57;;;;;;;13.85;55.11;99804.25;2221251;80;21031;-66
2021/10/25 11:23:35;;;;;;;26.50;8.80;;;;;;;13.95;53.60;99792.20;2221209;80;20995;-66
2021/10/25 11:26:37;;;;;;;24.82;8.48;;;;;;;13.98;53.25;99784.11;2221095;80;21040;-66
2021/10/25 11:29:39;;;;;;;28.38;9.85;;;;;;;13.94;53.39;99787.87;2221221;80;21106;-66
2021/10/25 11:32:41;;;;;;;29.05;9.90;;;;;;;13.92;52.53;99781.84;2220980;80;21048;-66
2021/10/25 11:35:42;;;;;;;28.83;10.17;;;;;;;13.99;53.82;99784.95;2221313;80;21015;-68
2021/10/25 11:38:44;;;;;;;26.27;8.63;;;;;;;13.97;52.91;99779.77;2221227;80;20999;-66
2021/10/25 11:41:46;;;;;;;;;;;;;;;14.10;52.62;99776.41;2223470;80;21119;-67
2021/10/25 11:44:48;;;;;;;26.70;8.63;;;;;;;14.24;52.86;99768.50;2220761;80;20410;-66
2021/10/25 11:47:50;;;;;;;;;;;;;;;14.36;51.67;99766.88;2222947;80;21151;-66
2021/10/25 11:50:52;;;;;;;24.40;9.33;;;;;;;14.45;50.55;99775.57;2220610;80;20143;-66
2021/10/25 11:53:54;;;;;;;27.27;9.00;;;;;;;14.41;51.55;99767.91;2220714;80;21071;-66
2021/10/25 11:56:55;;;;;;;26.62;9.40;;;;;;;14.41;51.77;99762.18;2220664;80;21020;-66
2021/10/25 11:59:57;;;;;;;27.17;9.45;;;;;;;14.47;51.47;99759.16;2220647;80;21090;-66
2021/10/25 12:02:58;;;;;;;27.10;8.37;;;;;;;14.54;51.49;99757.83;2220702;80;21556;-67
2021/10/25 12:05:59;;;;;;;27.07;9.90;;;;;;;14.73;50.32;99746.97;2220706;80;21037;-66
2021/10/25 12:09:01;;;;;;;27.03;9.23;;;;;;;14.78;50.68;99747.16;2220517;80;21131;-66
2021/10/25 12:12:05;;;;;;;24.20;7.90;;;;;;;14.84;49.72;99748.94;2220720;80;21031;-65
2021/10/25 12:15:06;;;;;;;24.00;7.62;;;;;;;14.91;51.00;99748.05;2190343;80;20973;-66
2021/10/25 12:18:07;;;;;;;24.23;7.90;;;;;;;15.02;50.21;99736.81;2220892;80;21008;-68
2021/10/25 12:21:10;;;;;;;22.13;6.67;;;;;;;15.03;49.45;99737.20;2220758;80;21031;-66
2021/10/25 12:24:12;;;;;;;22.13;6.83;;;;;;;15.08;49.47;99732.44;2220462;80;21559;-66
2021/10/25 12:27:13;;;;;;;24.20;6.60;;;;;;;15.10;46.75;99727.92;2220685;80;21020;-66
2021/10/25 12:30:15;;;;;;;24.03;7.40;;;;;;;15.15;46.27;99719.69;2220720;80;21715;-66
2021/10/25 12:33:16;;;;;;;25.60;7.87;;;;;;;15.20;48.07;99721.53;2220775;80;21711;-66
2021/10/25 12:36:18;;;;;;;21.37;6.90;;;;;;;15.21;47.80;99711.34;2220575;80;21143;-66
2021/10/25 12:39:20;;;;;;;;;;;;;;;15.18;47.48;99706.27;2223036;80;21088;-66
2021/10/25 12:42:21;;;;;;;24.00;8.25;;;;;;;15.15;47.20;99713.08;2220480;80;20171;-66
2021/10/25 12:45:26;;;;;;;25.68;7.70;;;;;;;15.11;46.62;99700.53;2213127;80;21073;-66
2021/10/25 12:48:26;;;;;;;23.05;7.65;;;;;;;15.12;46.74;99698.75;2188399;81;20973;-68
2021/10/25 12:51:28;;;;;;;23.23;7.43;;;;;;;15.07;44.96;99703.86;2210519;81;21471;-67
2021/10/25 12:54:29;;;;;;;24.32;7.45;;;;;;;15.08;47.98;99708.66;2210255;81;21040;-66
2021/10/25 12:57:31;;;;;;;22.30;7.67;;;;;;;15.13;44.39;99697.33;2210417;81;21621;-66
2021/10/25 13:00:33;;;;;;;23.73;7.55;;;;;;;15.11;45.50;99695.73;2210331;81;21032;-66
2021/10/25 13:03:35;;;;;;;25.05;8.13;;;;;;;15.14;47.41;99696.84;2210195;81;21619;-67
2021/10/25 13:06:37;;;;;;;25.60;8.98;;;;;;;15.18;45.96;99689.92;2209934;81;21064;-66
2021/10/25 13:09:39;;;;;;;25.20;8.33;;;;;;;15.17;46.91;99686.94;2210321;80;21048;-67
2021/10/25 13:12:40;;;;;;;23.15;7.67;;;;;;;15.21;45.98;99684.46;2210321;80;21346;-67
2021/10/25 13:15:42;;;;;;;24.50;8.50;;;;;;;15.17;46.75;99678.14;2210468;81;21036;-66
2021/10/25 13:18:43;;;;;;;27.90;8.30;;;;;;;15.15;46.43;99680.05;2210810;81;20973;-68
2021/10/25 13:21:45;;;;;;;25.40;8.33;;;;;;;15.17;46.64;99668.44;2210585;81;21028;-68
2021/10/25 13:24:46;;;;;;;23.30;8.43;;;;;;;15.22;47.01;99676.05;2210723;81;20969;-66
2021/10/25 13:27:49;;;;;;;24.37;7.50;;;;;;;15.29;46.83;99675.17;2210690;81;21004;-66
2021/10/25 13:30:50;;;;;;;26.87;8.83;;;;;;;15.27;46.74;99667.35;2210348;81;21048;-66
2021/10/25 13:33:52;;;;;;;26.53;8.10;;;;;;;15.27;46.31;99662.06;2210593;81;20972;-66
2021/10/25 13:36:53;;;;;;;25.87;8.20;;;;;;;15.16;45.52;99662.77;2210678;81;21024;-67
2021/10/25 13:39:55;;;;;;;23.27;8.07;;;;;;;15.04;46.70;99665.76;2210580;80;20980;-67
2021/10/25 13:42:57;;;;;;;23.75;8.48;;;;;;;15.10;46.20;99657.03;2210610;81;21625;-66
2021/10/25 13:45:58;;;;;;;25.37;8.83;;;;;;;15.03;46.52;99648.20;2218549;80;21071;-66
2021/10/25 13:49:00;;;;;;;27.20;8.78;;;;;;;15.04;46.13;99647.27;2220381;80;21127;-67
2021/10/25 13:52:01;;;;;;;25.13;8.20;;;;;;;15.01;46.80;99646.16;2220931;80;21039;-66
2021/10/25 13:55:05;;;;;;;29.13;8.90;;;;;;;15.04;46.91;99644.63;2220814;80;21091;-66
2021/10/25 13:58:06;;;;;;;27.82;8.83;;;;;;;15.02;46.75;99641.70;2190203;80;21024;-66
2021/10/25 14:01:07;;;;;;;29.57;8.57;;;;;;;14.96;45.72;99630.23;2221101;80;21020;-67
2021/10/25 14:04:13;;;;;;;25.33;8.33;;;;;;;14.96;45.72;99630.23;2220834;80;21047;-68
2021/10/25 14:07:17;;;;;;;24.65;8.00;;;;;;;14.92;46.36;99626.10;2189922;80;21703;-66
2021/10/25 14:13:27;;;;;;;25.05;8.55;;;;;;;14.74;46.10;99621.09;2220830;80;21494;-66
2021/10/25 14:16:32;;;;;;;24.15;7.58;;;;;;;14.57;46.80;99622.16;2190262;80;21035;-66
2021/10/25 14:19:24;;;;;;;27.17;7.87;;;;;;;14.43;46.52;99619.08;2190279;80;20977;-67
2021/10/25 14:22:25;;;;;;;27.00;8.90;;;;;;;14.25;47.16;99617.61;2220961;80;21011;-66
2021/10/25 14:25:27;;;;;;;25.27;8.30;;;;;;;14.12;47.53;99614.91;2220889;80;21538;-66
2021/10/25 14:28:30;;;;;;;25.23;8.00;;;;;;;14.10;47.89;99614.17;2220890;80;20976;-66
2021/10/25 14:31:32;;;;;;;25.12;8.18;;;;;;;13.95;47.93;99608.91;2220777;80;21067;-66
2021/10/25 14:34:34;;;;;;;26.95;8.23;;;;;;;13.84;48.13;99605.61;2220633;80;21542;-66
2021/10/25 14:37:40;;;;;;;25.72;8.60;;;;;;;13.69;48.13;99607.88;2220750;80;21083;-66
2021/10/25 14:40:47;;;;;;;24.02;7.80;;;;;;;13.62;48.45;99599.97;2190403;80;20980;-68
2021/10/25 14:43:46;;;;;;;26.62;8.10;;;;;;;13.47;48.42;99606.55;2190501;80;21019;-66
2021/10/25 14:58:55;;;;;;;25.30;8.13;;;;;;;12.54;49.12;99597.06;2223504;80;20969;-67
2021/10/25 15:01:57;;;;;;;25.37;8.93;;;;;;;12.32;49.37;99591.70;2223512;80;21970;-67
2021/10/25 15:05:00;;;;;;;28.83;8.67;;;;;;;12.09;49.73;99591.19;2223658;80;20991;-67
2021/10/25 15:08:02;;;;;;;25.72;8.25;;;;;;;11.82;50.01;99582.99;2223299;80;21526;-66
2021/10/25 15:11:03;;;;;;;26.20;7.80;;;;;;;11.51;50.30;99587.27;2223564;80;20988;-68
2021/10/25 15:14:04;;;;;;;27.80;8.25;;;;;;;11.30;50.60;99587.08;2223522;80;21026;-67
2021/10/25 15:17:06;;;;;;;24.80;7.45;;;;;;;11.15;50.79;99583.45;2223464;80;20984;-67
2021/10/25 15:20:07;;;;;;;25.15;7.87;;;;;;;10.89;51.04;99578.62;2223229;80;21026;-67
2021/10/25 15:23:09;;;;;;;25.13;8.03;;;;;;;10.67;51.37;99581.44;2223477;80;21551;-68
2021/10/25 15:26:11;;;;;;;27.73;8.73;;;;;;;10.48;51.69;99584.13;2223764;80;20995;-67
2021/10/25 15:29:12;;;;;;;23.30;7.70;;;;;;;10.30;52.10;99577.11;2223408;80;21479;-67
2021/10/25 15:32:14;;;;;;;26.63;8.57;;;;;;;10.07;52.34;99576.45;2223662;80;20964;-67
2021/10/25 15:35:15;;;;;;;31.97;9.93;;;;;;;9.88;52.76;99577.30;2223490;80;21006;-68
2021/10/25 15:38:17;;;;;;;28.40;10.23;;;;;;;9.69;53.19;99573.34;2223398;80;21016;-67
2021/10/25 15:41:18;;;;;;;28.40;10.45;;;;;;;9.47;53.64;99575.25;2223272;80;20968;-67
2021/10/25 15:44:20;;;;;;;28.27;9.37;;;;;;;9.24;53.98;99582.78;2223235;80;20992;-67
2021/10/25 15:47:21;;;;;;;28.87;10.30;;;;;;;9.08;54.53;99586.08;2220782;80;21123;-67
2021/10/25 15:50:23;;;;;;;29.90;9.90;;;;;;;8.90;54.86;99580.31;2220656;80;21100;-68
2021/10/25 15:53:24;;;;;;;25.68;9.38;;;;;;;8.72;55.40;99570.14;2220457;80;21029;-66
2021/10/25 15:56:27;;;;;;;31.23;10.95;;;;;;;8.61;55.55;99573.22;2220472;80;21543;-66
2021/10/25 15:59:28;;;;;;;28.70;10.00;;;;;;;8.51;55.93;99576.66;2220594;80;21076;-67
2021/10/25 16:02:31;;;;;;;30.27;10.32;;;;;;;8.45;56.68;99575.61;2220431;80;21647;-67
2021/10/25 16:05:33;;;;;;;28.70;10.03;;;;;;;8.36;56.43;99568.96;2220537;80;21039;-67
2021/10/25 16:08:34;;;;;;;30.27;9.95;;;;;;;8.25;56.63;99569.38;2220738;80;21036;-67
2021/10/25 16:11:36;;;;;;;31.50;11.08;;;;;;;8.19;56.73;99561.78;2220491;80;21045;-67
2021/10/25 16:14:38;;;;;;;32.85;12.25;;;;;;;8.22;57.06;99573.41;2220717;80;21087;-67
2021/10/25 16:17:39;;;;;;;31.42;11.03;;;;;;;8.19;56.92;99563.09;2220625;80;21147;-67